createdAt,value
2022-12-18T00:00:10.421Z,47.50
2022-12-18T00:02:45.777Z,59.33
2022-12-18T00:05:14.060Z,56.53
2022-12-18T00:07:42.296Z,49.57
2022-12-18T00:10:12.094Z,47.73
2022-12-18T00:12:46.487Z,50.83
2022-12-18T00:15:14.817Z,53.43
2022-12-18T00:17:43.071Z,47.35
2022-12-18T00:20:12.250Z,52.47
2022-12-18T00:22:40.444Z,47.33
2022-12-18T00:25:09.535Z,46.87
2022-12-18T00:27:39.254Z,56.27
2022-12-18T00:30:08.353Z,48.87
2022-12-18T00:32:38.101Z,53.77
2022-12-18T00:35:07.267Z,46.80
2022-12-18T00:37:36.217Z,59.80
2022-12-18T00:40:05.304Z,49.97
2022-12-18T00:42:51.143Z,58.17
2022-12-18T00:45:20.917Z,48.57
2022-12-18T00:47:49.229Z,54.13
2022-12-18T00:50:17.610Z,49.50
2022-12-18T00:52:45.898Z,57.07
2022-12-18T00:55:14.566Z,53.93
2022-12-18T00:57:43.319Z,50.47
2022-12-18T01:00:14.998Z,54.90
2022-12-18T01:02:45.191Z,46.27
2022-12-18T01:05:15.215Z,52.50
2022-12-18T01:07:44.396Z,51.23
2022-12-18T01:10:15.331Z,45.10
2022-12-18T01:12:48.551Z,44.67
2022-12-18T01:15:18.058Z,48.23
2022-12-18T01:17:47.768Z,47.83
2022-12-18T01:20:16.173Z,42.17
2022-12-18T01:22:44.529Z,47.33
2022-12-18T01:25:13.117Z,43.63
2022-12-18T01:27:41.385Z,44.40
2022-12-18T01:30:10.568Z,48.17
2022-12-18T01:32:38.778Z,44.57
2022-12-18T01:35:09.818Z,40.40
2022-12-18T01:37:38.220Z,43.17
2022-12-18T01:40:07.605Z,50.87
2022-12-18T01:42:35.970Z,44.40
2022-12-18T01:45:24.327Z,55.07
2022-12-18T01:47:55.057Z,43.23
2022-12-18T01:50:26.988Z,52.70
2022-12-18T01:52:57.831Z,51.03
2022-12-18T01:55:28.045Z,47.23
2022-12-18T01:57:59.835Z,47.13
2022-12-18T02:00:29.257Z,50.60
2022-12-18T02:02:57.802Z,44.37
2022-12-18T02:05:36.162Z,48.50
2022-12-18T02:08:11.466Z,41.60
2022-12-18T02:10:49.129Z,52.00
2022-12-18T02:13:22.485Z,43.97
2022-12-18T02:15:57.390Z,38.33
2022-12-18T02:18:47.681Z,39.53
2022-12-18T02:21:24.372Z,42.17
2022-12-18T02:23:57.631Z,50.30
2022-12-18T02:26:50.009Z,44.47
2022-12-18T02:29:22.999Z,43.87
2022-12-18T02:31:54.891Z,41.77
2022-12-18T02:34:26.312Z,47.43
2022-12-18T02:36:56.950Z,43.20
2022-12-18T02:39:26.313Z,46.73
2022-12-18T02:42:09.043Z,43.97
2022-12-18T02:44:42.351Z,45.97
2022-12-18T02:47:12.655Z,39.67
2022-12-18T02:49:50.435Z,39.80
2022-12-18T02:52:25.184Z,35.47
2022-12-18T02:55:02.449Z,41.20
2022-12-18T02:57:37.727Z,40.40
2022-12-18T03:00:09.498Z,37.07
2022-12-18T03:02:42.861Z,35.80
2022-12-18T03:05:15.950Z,39.97
2022-12-18T03:07:50.642Z,37.90
2022-12-18T03:10:24.108Z,38.57
2022-12-18T03:12:56.808Z,37.97
2022-12-18T03:15:27.413Z,37.13
2022-12-18T03:18:05.107Z,36.00
2022-12-18T03:20:34.599Z,37.83
2022-12-18T03:23:06.698Z,35.07
2022-12-18T03:25:35.671Z,35.07
2022-12-18T03:28:06.112Z,39.33
2022-12-18T03:30:36.170Z,39.87
2022-12-18T03:33:08.139Z,36.47
2022-12-18T03:35:39.735Z,34.03
2022-12-18T03:38:08.610Z,37.00
2022-12-18T03:40:47.537Z,34.93
2022-12-18T03:43:22.414Z,34.00
2022-12-18T03:45:54.433Z,38.87
2022-12-18T03:48:29.116Z,31.10
2022-12-18T03:51:00.272Z,38.40
2022-12-18T03:53:35.066Z,30.13
2022-12-18T03:56:05.075Z,29.97
2022-12-18T03:58:40.440Z,32.97
2022-12-18T04:01:33.972Z,37.00
2022-12-18T04:04:03.511Z,32.83
2022-12-18T04:06:36.265Z,29.57
2022-12-18T04:09:05.743Z,34.67
2022-12-18T04:11:37.623Z,32.00
2022-12-18T04:14:11.850Z,32.83
2022-12-18T04:16:42.885Z,28.57
2022-12-18T04:19:14.101Z,28.70
2022-12-18T04:21:44.915Z,32.33
2022-12-18T04:24:15.517Z,32.97
2022-12-18T04:26:52.883Z,32.63
2022-12-18T04:29:28.085Z,27.73
2022-12-18T04:31:56.705Z,28.90
2022-12-18T04:34:26.911Z,27.53
2022-12-18T04:36:56.504Z,29.67
2022-12-18T04:39:25.609Z,30.60
2022-12-18T04:41:56.872Z,31.53
2022-12-18T04:44:27.290Z,31.10
2022-12-18T04:46:55.593Z,29.93
2022-12-18T04:49:25.408Z,32.57
2022-12-18T04:51:54.004Z,29.10
2022-12-18T04:54:22.552Z,34.80
2022-12-18T04:56:50.934Z,28.00
2022-12-18T04:59:19.121Z,28.23
2022-12-18T05:01:48.831Z,24.53
2022-12-18T05:04:17.261Z,32.50
2022-12-18T05:06:46.318Z,23.90
2022-12-18T05:09:14.589Z,33.17
2022-12-18T05:11:42.828Z,28.40
2022-12-18T05:14:11.038Z,27.10
2022-12-18T05:16:39.296Z,25.93
2022-12-18T05:19:09.075Z,26.77
2022-12-18T05:21:37.347Z,27.63
2022-12-18T05:24:06.311Z,28.73
2022-12-18T05:26:34.518Z,24.53
2022-12-18T05:29:02.747Z,29.47
2022-12-18T05:31:35.955Z,26.07
2022-12-18T05:34:09.535Z,31.23
2022-12-18T05:36:39.036Z,26.63
2022-12-18T05:39:07.616Z,26.40
2022-12-18T05:41:35.872Z,25.77
2022-12-18T05:44:04.261Z,27.70
2022-12-18T05:46:34.210Z,23.63
2022-12-18T05:49:03.021Z,32.20
2022-12-18T05:51:32.664Z,26.60
2022-12-18T05:54:00.924Z,29.83
2022-12-18T05:56:29.135Z,31.00
2022-12-18T05:58:57.559Z,24.23
2022-12-18T06:01:27.804Z,24.03
2022-12-18T06:03:56.882Z,24.10
2022-12-18T06:06:27.259Z,28.80
2022-12-18T06:08:57.602Z,27.60
2022-12-18T06:11:27.802Z,21.73
2022-12-18T06:13:59.024Z,24.70
2022-12-18T06:16:28.076Z,24.17
2022-12-18T06:18:58.274Z,30.97
2022-12-18T06:21:26.632Z,30.37
2022-12-18T06:23:56.364Z,29.35
2022-12-18T06:26:27.996Z,24.40
2022-12-18T06:28:57.201Z,27.53
2022-12-18T06:31:26.241Z,24.30
2022-12-18T06:33:54.678Z,28.20
2022-12-18T06:36:23.161Z,25.63
2022-12-18T06:38:51.764Z,26.07
2022-12-18T06:41:22.670Z,30.80
2022-12-18T06:43:52.857Z,24.67
2022-12-18T06:46:24.056Z,26.92
2022-12-18T06:48:52.824Z,26.67
2022-12-18T06:51:22.427Z,31.50
2022-12-18T06:53:51.093Z,31.07
2022-12-18T06:56:21.180Z,24.93
2022-12-18T06:58:49.427Z,25.23
2022-12-18T07:01:17.787Z,27.57
2022-12-18T07:03:46.303Z,39.60
2022-12-18T07:06:17.049Z,25.57
2022-12-18T07:08:45.433Z,24.30
2022-12-18T07:11:13.857Z,25.67
2022-12-18T07:13:43.916Z,28.47
2022-12-18T07:16:19.624Z,24.90
2022-12-18T07:18:52.506Z,24.93
2022-12-18T07:21:21.842Z,23.50
2022-12-18T07:23:50.122Z,25.93
2022-12-18T07:26:19.819Z,24.57
2022-12-18T07:28:49.718Z,26.00
2022-12-18T07:31:20.004Z,27.47
2022-12-18T07:33:50.655Z,31.75
2022-12-18T07:36:19.064Z,24.40
2022-12-18T07:38:49.876Z,19.73
2022-12-18T07:41:19.604Z,29.27
2022-12-18T07:43:49.763Z,28.63
2022-12-18T07:46:18.832Z,30.40
2022-12-18T07:48:49.292Z,27.57
2022-12-18T07:51:18.401Z,25.00
2022-12-18T07:53:46.840Z,24.05
2022-12-18T07:56:28.669Z,28.37
2022-12-18T07:58:58.869Z,26.90
2022-12-18T08:01:27.404Z,24.17
2022-12-18T08:03:55.905Z,25.97
2022-12-18T08:06:24.889Z,24.40
2022-12-18T08:08:54.583Z,26.40
2022-12-18T08:11:23.799Z,26.70
2022-12-18T08:13:52.093Z,30.83
2022-12-18T08:16:22.025Z,30.43
2022-12-18T08:18:50.950Z,29.13
2022-12-18T08:21:23.834Z,25.93
2022-12-18T08:23:52.820Z,30.27
2022-12-18T08:26:21.983Z,26.63
2022-12-18T08:28:50.839Z,26.73
2022-12-18T08:31:21.085Z,27.10
2022-12-18T08:33:51.519Z,28.63
2022-12-18T08:36:20.521Z,24.87
2022-12-18T08:38:49.061Z,25.27
2022-12-18T08:41:18.586Z,26.57
2022-12-18T08:44:05.167Z,24.83
2022-12-18T08:46:39.899Z,27.20
2022-12-18T08:49:09.134Z,29.20
2022-12-18T08:51:37.602Z,25.17
2022-12-18T08:54:06.831Z,31.70
2022-12-18T08:56:35.298Z,25.90
2022-12-18T08:59:03.992Z,25.43
2022-12-18T09:01:32.641Z,24.30
2022-12-18T09:04:03.979Z,27.93
2022-12-18T09:06:33.339Z,23.20
2022-12-18T09:09:01.626Z,28.57
2022-12-18T09:11:31.212Z,30.23
2022-12-18T09:13:59.996Z,28.07
2022-12-18T09:16:32.295Z,33.50
2022-12-18T09:19:05.251Z,36.27
2022-12-18T09:21:37.439Z,31.43
2022-12-18T09:24:08.708Z,28.90
2022-12-18T09:26:37.316Z,32.53
2022-12-18T09:29:05.810Z,32.57
2022-12-18T09:31:34.063Z,32.33
2022-12-18T09:34:03.729Z,30.73
2022-12-18T09:36:32.027Z,30.87
2022-12-18T09:39:04.941Z,34.10
2022-12-18T09:41:45.337Z,33.20
2022-12-18T09:44:19.495Z,29.53
2022-12-18T09:46:51.405Z,27.60
2022-12-18T09:49:23.680Z,27.57
2022-12-18T09:51:54.886Z,31.73
2022-12-18T09:54:25.144Z,32.47
2022-12-18T09:56:54.606Z,31.53
2022-12-18T09:59:27.396Z,33.30
2022-12-18T10:01:55.797Z,31.50
2022-12-18T10:04:44.288Z,30.53
2022-12-18T10:07:40.586Z,27.80
2022-12-18T10:10:21.406Z,28.70
2022-12-18T10:12:58.256Z,30.63
2022-12-18T10:15:34.258Z,25.90
2022-12-18T10:18:08.689Z,29.60
2022-12-18T10:20:43.764Z,30.23
2022-12-18T10:23:17.527Z,33.27
2022-12-18T10:25:53.009Z,36.43
2022-12-18T10:28:22.262Z,32.20
2022-12-18T10:30:50.505Z,35.27
2022-12-18T10:33:20.505Z,30.47
2022-12-18T10:35:51.301Z,34.13
2022-12-18T10:38:25.415Z,33.40
2022-12-18T10:40:55.849Z,37.57
2022-12-18T10:43:26.419Z,34.63
2022-12-18T10:46:10.595Z,32.23
2022-12-18T10:48:43.075Z,31.63
2022-12-18T10:51:22.280Z,34.83
2022-12-18T10:53:57.187Z,34.47
2022-12-18T10:56:26.968Z,35.17
2022-12-18T10:59:00.679Z,36.20
2022-12-18T11:01:29.958Z,35.53
2022-12-18T11:04:03.671Z,35.67
2022-12-18T11:06:35.885Z,33.67
2022-12-18T11:09:13.320Z,29.83
2022-12-18T11:11:42.758Z,38.27
2022-12-18T11:14:17.567Z,33.93
2022-12-18T11:17:03.038Z,35.87
2022-12-18T11:19:37.715Z,37.67
2022-12-18T11:22:27.325Z,32.17
2022-12-18T11:25:30.238Z,37.20
2022-12-18T11:27:51.284Z,32.13
2022-12-18T11:30:24.664Z,33.50
2022-12-18T11:32:54.271Z,42.23
2022-12-18T11:35:25.629Z,32.93
2022-12-18T11:37:58.784Z,34.77
2022-12-18T11:40:36.505Z,37.80
2022-12-18T11:43:12.081Z,31.17
2022-12-18T11:45:45.357Z,37.77
2022-12-18T11:48:19.187Z,35.13
2022-12-18T11:50:52.027Z,31.20
2022-12-18T11:53:22.082Z,36.53
2022-12-18T11:56:05.412Z,33.47
2022-12-18T11:58:48.621Z,31.67
2022-12-18T12:01:35.550Z,34.80
2022-12-18T12:04:50.474Z,36.60
2022-12-18T12:07:27.093Z,31.83
2022-12-18T12:10:02.942Z,34.27
2022-12-18T12:12:49.082Z,28.93
2022-12-18T12:15:26.744Z,33.47
2022-12-18T12:17:58.218Z,33.97
2022-12-18T12:20:36.272Z,31.53
2022-12-18T12:23:11.002Z,31.07
2022-12-18T12:25:45.625Z,28.83
2022-12-18T12:28:25.098Z,27.70
2022-12-18T12:31:00.625Z,36.63
2022-12-18T12:33:36.606Z,30.13
2022-12-18T12:36:09.845Z,33.40
2022-12-18T12:38:48.345Z,32.67
2022-12-18T12:41:40.974Z,33.70
2022-12-18T12:44:11.510Z,31.83
2022-12-18T12:46:42.031Z,33.97
2022-12-18T12:49:14.597Z,29.77
2022-12-18T12:51:45.703Z,37.03
2022-12-18T12:54:18.510Z,30.03
2022-12-18T12:56:52.329Z,32.17
2022-12-18T12:59:27.202Z,33.10
2022-12-18T13:01:59.620Z,33.47
2022-12-18T13:04:34.979Z,32.17
2022-12-18T13:07:08.753Z,32.73
2022-12-18T13:10:20.884Z,31.87
2022-12-18T13:12:58.147Z,35.80
2022-12-18T13:15:31.531Z,33.60
2022-12-18T13:18:26.272Z,29.93
2022-12-18T13:21:05.500Z,32.40
2022-12-18T13:23:36.089Z,30.87
2022-12-18T13:26:33.054Z,31.60
2022-12-18T13:29:07.076Z,33.87
2022-12-18T13:32:03.012Z,36.47
2022-12-18T13:34:32.775Z,33.07
2022-12-18T13:37:35.043Z,31.80
2022-12-18T13:40:03.399Z,33.67
2022-12-18T13:43:00.491Z,32.87
2022-12-18T13:45:47.864Z,35.07
2022-12-18T13:48:21.488Z,37.07
2022-12-18T13:50:57.671Z,30.10
2022-12-18T13:53:29.755Z,35.90
2022-12-18T13:55:58.897Z,35.80
2022-12-18T13:58:27.214Z,29.30
2022-12-18T14:00:57.729Z,32.23
2022-12-18T14:03:28.314Z,36.50
2022-12-18T14:06:05.759Z,33.47
2022-12-18T14:08:41.526Z,45.10
2022-12-18T14:11:21.627Z,37.57
2022-12-18T14:13:50.497Z,35.47
2022-12-18T14:16:20.949Z,36.03
2022-12-18T14:18:55.460Z,36.67
2022-12-18T14:21:28.001Z,33.93
2022-12-18T14:24:07.052Z,39.40
2022-12-18T14:26:35.508Z,37.30
2022-12-18T14:29:21.590Z,36.37
2022-12-18T14:32:15.022Z,38.87
2022-12-18T14:34:46.111Z,35.83
2022-12-18T14:37:15.530Z,33.77
2022-12-18T14:39:55.154Z,37.33
2022-12-18T14:42:23.633Z,39.73
2022-12-18T14:45:13.558Z,38.47
2022-12-18T14:47:45.547Z,37.50
2022-12-18T14:50:16.142Z,37.47
2022-12-18T14:52:44.391Z,39.63
2022-12-18T14:55:17.994Z,40.87
2022-12-18T14:57:46.601Z,36.83
2022-12-18T15:00:20.031Z,41.27
2022-12-18T15:02:52.515Z,44.60
2022-12-18T15:05:22.867Z,45.33
2022-12-18T15:07:52.768Z,41.17
2022-12-18T15:10:23.137Z,37.57
2022-12-18T15:12:52.633Z,45.60
2022-12-18T15:15:47.073Z,40.23
2022-12-18T15:18:18.925Z,43.47
2022-12-18T15:20:49.306Z,44.00
2022-12-18T15:23:20.056Z,40.53
2022-12-18T15:25:49.354Z,40.87
2022-12-18T15:28:25.062Z,45.17
2022-12-18T15:31:04.538Z,52.20
2022-12-18T15:33:36.680Z,59.03
2022-12-18T15:36:06.876Z,54.57
2022-12-18T15:38:35.197Z,49.33
2022-12-18T15:41:04.180Z,41.63
2022-12-18T15:43:34.701Z,46.07
2022-12-18T15:46:04.215Z,43.80
2022-12-18T15:48:34.979Z,40.90
2022-12-18T15:51:03.669Z,38.77
2022-12-18T15:53:33.246Z,39.00
2022-12-18T15:56:19.136Z,32.00
2022-12-18T15:58:47.402Z,44.50
2022-12-18T16:01:15.974Z,39.70
2022-12-18T16:03:46.053Z,33.10
2022-12-18T16:06:14.551Z,38.87
2022-12-18T16:08:43.117Z,36.07
2022-12-18T16:11:38.637Z,37.13
2022-12-18T16:14:18.972Z,35.93
2022-12-18T16:16:47.801Z,36.50
2022-12-18T16:19:17.883Z,40.37
2022-12-18T16:21:46.491Z,41.23
2022-12-18T16:24:18.010Z,38.63
2022-12-18T16:26:46.409Z,36.50
2022-12-18T16:29:14.764Z,37.33
2022-12-18T16:31:43.128Z,40.57
2022-12-18T16:34:17.862Z,49.70
2022-12-18T16:36:46.160Z,41.13
2022-12-18T16:39:14.422Z,42.77
2022-12-18T16:41:42.918Z,33.17
2022-12-18T16:44:11.432Z,43.07
2022-12-18T16:46:39.964Z,33.20
2022-12-18T16:49:08.332Z,34.03
2022-12-18T16:51:38.072Z,38.20
2022-12-18T16:54:10.325Z,36.70
2022-12-18T16:56:42.769Z,47.83
2022-12-18T16:59:13.363Z,38.50
2022-12-18T17:01:41.943Z,37.93
2022-12-18T17:04:10.569Z,39.27
2022-12-18T17:06:42.912Z,35.63
2022-12-18T17:09:14.448Z,39.10
2022-12-18T17:11:42.794Z,40.00
2022-12-18T17:14:14.153Z,39.30
2022-12-18T17:16:42.703Z,37.87
2022-12-18T17:19:16.628Z,48.23
2022-12-18T17:21:49.841Z,36.67
2022-12-18T17:24:18.430Z,36.60
2022-12-18T17:26:48.470Z,36.97
2022-12-18T17:29:19.689Z,35.67
2022-12-18T17:31:49.099Z,39.17
2022-12-18T17:34:17.920Z,40.17
2022-12-18T17:36:48.651Z,37.80
2022-12-18T17:39:20.754Z,36.50
2022-12-18T17:41:50.030Z,53.33
2022-12-18T17:44:18.560Z,40.53
2022-12-18T17:46:47.389Z,41.50
2022-12-18T17:49:15.745Z,50.43
2022-12-18T17:51:44.020Z,44.90
2022-12-18T17:54:13.838Z,42.90
2022-12-18T17:56:42.166Z,39.80
2022-12-18T17:59:11.232Z,47.30
2022-12-18T18:01:44.326Z,44.83
2022-12-18T18:04:14.246Z,46.67
2022-12-18T18:06:42.781Z,47.80
2022-12-18T18:09:16.478Z,49.27
2022-12-18T18:12:04.252Z,48.53
2022-12-18T18:14:33.105Z,51.17
2022-12-18T18:17:04.846Z,42.47
2022-12-18T18:19:34.155Z,47.57
2022-12-18T18:22:03.171Z,45.40
2022-12-18T18:24:32.498Z,50.23
2022-12-18T18:27:02.109Z,50.00
2022-12-18T18:29:31.390Z,50.73
2022-12-18T18:32:00.256Z,40.07
2022-12-18T18:34:30.265Z,48.77
2022-12-18T18:37:02.120Z,45.13
2022-12-18T18:39:30.948Z,54.37
2022-12-18T18:41:59.429Z,47.43
2022-12-18T18:44:29.211Z,55.00
2022-12-18T18:46:59.240Z,47.77
2022-12-18T18:49:28.630Z,46.97
2022-12-18T18:51:57.886Z,47.50
2022-12-18T18:54:26.440Z,47.60
2022-12-18T18:59:45.818Z,41.90
2022-12-18T19:02:15.079Z,42.43
2022-12-18T19:04:46.153Z,47.23
2022-12-18T19:07:18.515Z,40.37
2022-12-18T19:10:04.942Z,47.93
2022-12-18T19:12:51.982Z,45.00
2022-12-18T19:15:21.875Z,45.30
2022-12-18T19:17:50.541Z,36.20
2022-12-18T19:20:19.661Z,43.07
2022-12-18T19:22:55.148Z,41.10
2022-12-18T19:25:37.557Z,44.23
2022-12-18T19:28:12.048Z,46.13
2022-12-18T19:30:59.425Z,47.80
2022-12-18T19:33:45.049Z,45.70
2022-12-18T19:36:16.734Z,44.37
2022-12-18T19:38:45.664Z,42.90
2022-12-18T19:41:15.309Z,40.07
2022-12-18T19:43:44.645Z,41.20
2022-12-18T19:46:16.074Z,43.20
2022-12-18T19:48:45.401Z,47.20
2022-12-18T19:51:16.304Z,43.70
2022-12-18T19:53:44.959Z,39.37
2022-12-18T19:56:15.194Z,35.37
2022-12-18T19:58:44.274Z,41.70
2022-12-18T20:01:16.477Z,40.73
2022-12-18T20:03:50.038Z,37.43
2022-12-18T20:06:25.261Z,38.73
2022-12-18T20:08:54.641Z,39.67
2022-12-18T20:11:29.516Z,32.93
2022-12-18T20:13:57.981Z,39.30
2022-12-18T20:16:27.686Z,41.53
2022-12-18T20:18:55.979Z,37.13
2022-12-18T20:21:25.324Z,38.97
2022-12-18T20:23:54.876Z,33.00
2022-12-18T20:26:23.446Z,33.47
2022-12-18T20:28:51.764Z,37.37
2022-12-18T20:31:20.079Z,34.27
2022-12-18T20:33:50.074Z,34.00
2022-12-18T20:36:26.954Z,37.63
2022-12-18T20:38:59.141Z,31.87
2022-12-18T20:41:38.126Z,34.93
2022-12-18T20:44:16.706Z,32.23
2022-12-18T20:46:53.203Z,38.30
2022-12-18T20:49:23.357Z,34.60
2022-12-18T20:51:52.592Z,33.10
2022-12-18T20:54:21.233Z,30.30
2022-12-18T20:56:49.514Z,36.23
2022-12-18T20:59:19.410Z,35.37
2022-12-18T21:01:48.942Z,30.93
2022-12-18T21:04:18.827Z,30.83
2022-12-18T21:06:52.331Z,34.40
2022-12-18T21:09:23.715Z,35.83
2022-12-18T21:12:12.011Z,32.20
2022-12-18T21:14:42.766Z,34.47
2022-12-18T21:17:11.155Z,35.43
2022-12-18T21:19:39.595Z,30.30
2022-12-18T21:22:09.601Z,33.27
2022-12-18T21:24:38.073Z,38.57
2022-12-18T21:27:06.268Z,32.33
2022-12-18T21:29:34.996Z,31.40
2022-12-18T21:32:03.932Z,32.90
2022-12-18T21:34:32.884Z,33.87
2022-12-18T21:37:01.742Z,31.17
2022-12-18T21:39:32.077Z,30.43
2022-12-18T21:42:17.963Z,30.97
2022-12-18T21:44:49.208Z,30.00
2022-12-18T21:47:21.677Z,31.20
2022-12-18T21:49:50.981Z,34.70
2022-12-18T21:52:19.210Z,26.43
2022-12-18T21:54:48.836Z,32.60
2022-12-18T21:57:18.698Z,31.27
2022-12-18T21:59:47.062Z,32.03
2022-12-18T22:02:17.188Z,28.53
2022-12-18T22:04:46.148Z,36.73
2022-12-18T22:07:15.575Z,35.77
2022-12-18T22:09:43.928Z,34.73
2022-12-18T22:12:34.668Z,30.63
2022-12-18T22:15:04.363Z,30.50
2022-12-18T22:17:32.865Z,26.87
2022-12-18T22:20:01.188Z,31.93
2022-12-18T22:22:29.438Z,34.40
2022-12-18T22:24:57.666Z,32.53
2022-12-18T22:27:27.197Z,32.47
2022-12-18T22:30:06.342Z,31.13
2022-12-18T22:32:35.596Z,32.67
2022-12-18T22:35:12.780Z,32.73
2022-12-18T22:37:43.721Z,30.37
2022-12-18T22:40:18.120Z,33.97
2022-12-18T22:42:51.870Z,32.83
2022-12-18T22:45:23.801Z,34.97
2022-12-18T22:47:52.615Z,33.80
2022-12-18T22:50:21.017Z,28.43
2022-12-18T22:52:49.338Z,29.13
2022-12-18T22:55:17.629Z,27.10
2022-12-18T22:57:48.960Z,28.13
2022-12-18T23:00:24.281Z,26.97
2022-12-18T23:02:59.710Z,30.53
2022-12-18T23:05:30.074Z,29.47
2022-12-18T23:07:58.845Z,25.93
2022-12-18T23:10:27.686Z,27.73
2022-12-18T23:12:56.039Z,24.50
2022-12-18T23:15:28.237Z,27.47
2022-12-18T23:17:58.793Z,30.67
2022-12-18T23:20:27.930Z,27.47
2022-12-18T23:22:56.243Z,29.70
2022-12-18T23:25:24.659Z,33.37
2022-12-18T23:27:53.313Z,27.33
2022-12-18T23:30:21.596Z,30.00
2022-12-18T23:32:51.365Z,31.23
2022-12-18T23:35:19.871Z,28.33
2022-12-18T23:38:04.198Z,30.20
2022-12-18T23:40:32.485Z,31.63
2022-12-18T23:43:01.194Z,32.77
2022-12-18T23:45:29.562Z,28.07
2022-12-18T23:47:59.291Z,34.73
2022-12-18T23:50:30.000Z,28.33
2022-12-18T23:53:04.952Z,30.23
2022-12-18T23:55:35.507Z,28.53
2022-12-18T23:58:03.751Z,29.77
